sensor_id;sensor_type;location;lat;lon;timestamp;temperature;humidity
8103;DHT22;4094;49.948;11.574;2023-12-07T00:00:47;6.00;76.50
8103;DHT22;4094;49.948;11.574;2023-12-07T00:03:36;6.10;76.50
8103;DHT22;4094;49.948;11.574;2023-12-07T00:06:25;6.10;76.50
8103;DHT22;4094;49.948;11.574;2023-12-07T00:09:15;6.10;76.60
8103;DHT22;4094;49.948;11.574;2023-12-07T00:12:05;6.10;76.60
8103;DHT22;4094;49.948;11.574;2023-12-07T00:14:55;6.10;76.60
8103;DHT22;4094;49.948;11.574;2023-12-07T00:17:46;6.00;76.60
8103;DHT22;4094;49.948;11.574;2023-12-07T00:20:36;6.00;76.60
8103;DHT22;4094;49.948;11.574;2023-12-07T00:23:25;6.00;76.50
8103;DHT22;4094;49.948;11.574;2023-12-07T00:26:14;6.00;76.50
8103;DHT22;4094;49.948;11.574;2023-12-07T00:29:04;6.00;76.50
8103;DHT22;4094;49.948;11.574;2023-12-07T00:31:53;6.00;76.40
8103;DHT22;4094;49.948;11.574;2023-12-07T00:34:44;6.00;76.50
8103;DHT22;4094;49.948;11.574;2023-12-07T00:37:34;6.00;76.40
8103;DHT22;4094;49.948;11.574;2023-12-07T00:40:23;6.00;76.40
8103;DHT22;4094;49.948;11.574;2023-12-07T00:43:13;6.00;76.40
8103;DHT22;4094;49.948;11.574;2023-12-07T00:46:03;6.00;76.40
8103;DHT22;4094;49.948;11.574;2023-12-07T00:48:52;6.00;76.40
8103;DHT22;4094;49.948;11.574;2023-12-07T00:51:43;6.00;76.30
8103;DHT22;4094;49.948;11.574;2023-12-07T00:54:33;6.00;76.30
8103;DHT22;4094;49.948;11.574;2023-12-07T00:57:22;6.00;76.30
8103;DHT22;4094;49.948;11.574;2023-12-07T01:00:12;6.00;76.20
8103;DHT22;4094;49.948;11.574;2023-12-07T01:03:02;6.00;76.20
8103;DHT22;4094;49.948;11.574;2023-12-07T01:05:52;6.00;76.20
8103;DHT22;4094;49.948;11.574;2023-12-07T01:08:42;6.00;76.20
8103;DHT22;4094;49.948;11.574;2023-12-07T01:11:32;6.00;76.10
8103;DHT22;4094;49.948;11.574;2023-12-07T01:14:21;6.00;76.90
8103;DHT22;4094;49.948;11.574;2023-12-07T01:17:10;6.00;76.10
8103;DHT22;4094;49.948;11.574;2023-12-07T01:20:00;6.00;76.10
8103;DHT22;4094;49.948;11.574;2023-12-07T01:22:51;6.00;76.10
8103;DHT22;4094;49.948;11.574;2023-12-07T01:25:42;6.00;76.20
8103;DHT22;4094;49.948;11.574;2023-12-07T01:28:32;6.00;76.20
8103;DHT22;4094;49.948;11.574;2023-12-07T01:31:22;6.00;76.20
8103;DHT22;4094;49.948;11.574;2023-12-07T01:34:11;6.00;76.20
8103;DHT22;4094;49.948;11.574;2023-12-07T01:37:01;5.90;76.20
8103;DHT22;4094;49.948;11.574;2023-12-07T01:39:51;5.90;76.20
8103;DHT22;4094;49.948;11.574;2023-12-07T01:42:49;5.90;76.20
8103;DHT22;4094;49.948;11.574;2023-12-07T01:45:38;5.90;76.20
8103;DHT22;4094;49.948;11.574;2023-12-07T01:48:28;5.90;76.20
8103;DHT22;4094;49.948;11.574;2023-12-07T01:51:19;5.90;76.30
8103;DHT22;4094;49.948;11.574;2023-12-07T01:54:09;5.90;76.30
8103;DHT22;4094;49.948;11.574;2023-12-07T01:56:59;5.90;76.30
8103;DHT22;4094;49.948;11.574;2023-12-07T01:59:50;5.90;76.30
8103;DHT22;4094;49.948;11.574;2023-12-07T02:02:39;5.90;76.30
8103;DHT22;4094;49.948;11.574;2023-12-07T02:05:29;5.90;76.30
8103;DHT22;4094;49.948;11.574;2023-12-07T02:08:20;5.90;76.30
8103;DHT22;4094;49.948;11.574;2023-12-07T02:11:09;6.00;76.30
8103;DHT22;4094;49.948;11.574;2023-12-07T02:13:59;5.90;76.20
8103;DHT22;4094;49.948;11.574;2023-12-07T02:16:53;5.90;76.20
8103;DHT22;4094;49.948;11.574;2023-12-07T02:19:51;6.00;76.20
8103;DHT22;4094;49.948;11.574;2023-12-07T02:22:42;6.00;76.20
8103;DHT22;4094;49.948;11.574;2023-12-07T02:25:37;6.00;76.20
8103;DHT22;4094;49.948;11.574;2023-12-07T02:28:50;6.00;76.20
8103;DHT22;4094;49.948;11.574;2023-12-07T02:31:40;5.90;76.20
8103;DHT22;4094;49.948;11.574;2023-12-07T02:34:29;5.90;76.20
8103;DHT22;4094;49.948;11.574;2023-12-07T02:37:19;5.90;76.10
8103;DHT22;4094;49.948;11.574;2023-12-07T02:40:11;5.90;76.10
8103;DHT22;4094;49.948;11.574;2023-12-07T02:43:03;5.90;76.20
8103;DHT22;4094;49.948;11.574;2023-12-07T02:45:54;5.90;76.20
8103;DHT22;4094;49.948;11.574;2023-12-07T02:48:43;5.90;76.10
8103;DHT22;4094;49.948;11.574;2023-12-07T02:51:33;5.90;76.10
8103;DHT22;4094;49.948;11.574;2023-12-07T02:54:29;5.90;76.10
8103;DHT22;4094;49.948;11.574;2023-12-07T02:57:18;5.90;76.10
8103;DHT22;4094;49.948;11.574;2023-12-07T03:00:09;5.90;76.20
8103;DHT22;4094;49.948;11.574;2023-12-07T03:03:02;5.90;76.20
8103;DHT22;4094;49.948;11.574;2023-12-07T03:05:51;5.90;76.20
8103;DHT22;4094;49.948;11.574;2023-12-07T03:08:41;5.90;76.20
8103;DHT22;4094;49.948;11.574;2023-12-07T03:11:30;5.90;76.30
8103;DHT22;4094;49.948;11.574;2023-12-07T03:14:19;5.90;76.20
8103;DHT22;4094;49.948;11.574;2023-12-07T03:17:08;5.80;76.20
8103;DHT22;4094;49.948;11.574;2023-12-07T03:19:59;5.80;76.20
8103;DHT22;4094;49.948;11.574;2023-12-07T03:22:48;5.80;76.30
8103;DHT22;4094;49.948;11.574;2023-12-07T03:25:37;5.80;76.30
8103;DHT22;4094;49.948;11.574;2023-12-07T03:28:26;5.80;76.40
8103;DHT22;4094;49.948;11.574;2023-12-07T03:31:16;5.80;76.40
8103;DHT22;4094;49.948;11.574;2023-12-07T03:34:05;5.90;76.40
8103;DHT22;4094;49.948;11.574;2023-12-07T03:36:56;5.80;76.40
8103;DHT22;4094;49.948;11.574;2023-12-07T03:39:46;5.80;76.30
8103;DHT22;4094;49.948;11.574;2023-12-07T03:42:35;5.80;76.50
8103;DHT22;4094;49.948;11.574;2023-12-07T03:45:43;5.80;76.50
8103;DHT22;4094;49.948;11.574;2023-12-07T03:48:33;5.80;76.50
8103;DHT22;4094;49.948;11.574;2023-12-07T03:51:22;5.80;76.60
8103;DHT22;4094;49.948;11.574;2023-12-07T03:54:13;5.80;76.70
8103;DHT22;4094;49.948;11.574;2023-12-07T03:57:03;5.80;76.70
8103;DHT22;4094;49.948;11.574;2023-12-07T03:59:53;5.80;76.70
8103;DHT22;4094;49.948;11.574;2023-12-07T04:02:42;5.80;76.60
8103;DHT22;4094;49.948;11.574;2023-12-07T04:05:31;5.80;76.60
8103;DHT22;4094;49.948;11.574;2023-12-07T04:08:21;5.80;76.70
8103;DHT22;4094;49.948;11.574;2023-12-07T04:11:12;5.80;76.70
8103;DHT22;4094;49.948;11.574;2023-12-07T04:14:02;5.80;76.80
8103;DHT22;4094;49.948;11.574;2023-12-07T04:16:51;5.80;76.70
8103;DHT22;4094;49.948;11.574;2023-12-07T04:19:40;5.80;76.80
8103;DHT22;4094;49.948;11.574;2023-12-07T04:22:30;5.80;76.80
8103;DHT22;4094;49.948;11.574;2023-12-07T04:25:19;5.80;76.70
8103;DHT22;4094;49.948;11.574;2023-12-07T04:28:10;5.80;76.70
8103;DHT22;4094;49.948;11.574;2023-12-07T04:30:59;5.80;76.60
8103;DHT22;4094;49.948;11.574;2023-12-07T04:33:49;5.80;76.60
8103;DHT22;4094;49.948;11.574;2023-12-07T04:36:39;5.80;76.60
8103;DHT22;4094;49.948;11.574;2023-12-07T04:39:28;5.80;76.60
8103;DHT22;4094;49.948;11.574;2023-12-07T04:42:17;5.80;76.70
8103;DHT22;4094;49.948;11.574;2023-12-07T04:45:09;5.80;76.80
8103;DHT22;4094;49.948;11.574;2023-12-07T04:47:58;5.80;76.80
8103;DHT22;4094;49.948;11.574;2023-12-07T04:50:48;5.80;76.80
8103;DHT22;4094;49.948;11.574;2023-12-07T04:53:39;5.80;76.80
8103;DHT22;4094;49.948;11.574;2023-12-07T04:56:28;5.80;76.80
8103;DHT22;4094;49.948;11.574;2023-12-07T04:59:17;5.80;76.80
8103;DHT22;4094;49.948;11.574;2023-12-07T05:02:08;5.80;76.80
8103;DHT22;4094;49.948;11.574;2023-12-07T05:04:57;5.80;76.80
8103;DHT22;4094;49.948;11.574;2023-12-07T05:07:47;5.80;76.80
8103;DHT22;4094;49.948;11.574;2023-12-07T05:10:36;5.80;76.80
8103;DHT22;4094;49.948;11.574;2023-12-07T05:13:26;5.80;76.80
8103;DHT22;4094;49.948;11.574;2023-12-07T05:16:16;5.80;76.70
8103;DHT22;4094;49.948;11.574;2023-12-07T05:19:07;5.80;76.80
8103;DHT22;4094;49.948;11.574;2023-12-07T05:21:56;5.80;76.60
8103;DHT22;4094;49.948;11.574;2023-12-07T05:24:46;5.70;76.50
8103;DHT22;4094;49.948;11.574;2023-12-07T05:27:36;5.70;76.70
8103;DHT22;4094;49.948;11.574;2023-12-07T05:30:25;5.70;76.70
8103;DHT22;4094;49.948;11.574;2023-12-07T05:33:15;5.80;76.70
8103;DHT22;4094;49.948;11.574;2023-12-07T05:36:07;5.80;76.60
8103;DHT22;4094;49.948;11.574;2023-12-07T05:38:57;5.80;76.60
8103;DHT22;4094;49.948;11.574;2023-12-07T05:41:47;5.80;76.60
8103;DHT22;4094;49.948;11.574;2023-12-07T05:44:36;5.80;76.50
8103;DHT22;4094;49.948;11.574;2023-12-07T05:47:26;5.80;76.50
8103;DHT22;4094;49.948;11.574;2023-12-07T05:50:16;5.80;76.50
8103;DHT22;4094;49.948;11.574;2023-12-07T05:53:07;5.80;76.50
8103;DHT22;4094;49.948;11.574;2023-12-07T05:55:57;5.80;76.30
8103;DHT22;4094;49.948;11.574;2023-12-07T05:58:51;5.80;76.30
8103;DHT22;4094;49.948;11.574;2023-12-07T06:01:40;5.80;76.30
8103;DHT22;4094;49.948;11.574;2023-12-07T06:04:31;5.80;76.20
8103;DHT22;4094;49.948;11.574;2023-12-07T06:07:20;5.80;76.20
8103;DHT22;4094;49.948;11.574;2023-12-07T06:10:11;5.80;76.00
8103;DHT22;4094;49.948;11.574;2023-12-07T06:13:01;5.80;76.90
8103;DHT22;4094;49.948;11.574;2023-12-07T06:15:51;5.80;76.20
8103;DHT22;4094;49.948;11.574;2023-12-07T06:18:41;5.80;76.20
8103;DHT22;4094;49.948;11.574;2023-12-07T06:21:31;5.80;76.20
8103;DHT22;4094;49.948;11.574;2023-12-07T06:24:21;5.80;76.10
8103;DHT22;4094;49.948;11.574;2023-12-07T06:27:13;5.80;76.00
8103;DHT22;4094;49.948;11.574;2023-12-07T06:30:04;5.80;76.10
8103;DHT22;4094;49.948;11.574;2023-12-07T06:32:55;5.80;76.00
8103;DHT22;4094;49.948;11.574;2023-12-07T06:35:44;5.80;76.00
8103;DHT22;4094;49.948;11.574;2023-12-07T06:38:34;5.80;75.90
8103;DHT22;4094;49.948;11.574;2023-12-07T06:41:24;5.80;75.90
8103;DHT22;4094;49.948;11.574;2023-12-07T06:44:15;5.80;75.80
8103;DHT22;4094;49.948;11.574;2023-12-07T06:47:05;5.80;75.60
8103;DHT22;4094;49.948;11.574;2023-12-07T06:49:54;5.80;75.50
8103;DHT22;4094;49.948;11.574;2023-12-07T06:52:44;5.70;75.40
8103;DHT22;4094;49.948;11.574;2023-12-07T06:55:33;5.70;75.60
8103;DHT22;4094;49.948;11.574;2023-12-07T06:58:28;5.70;75.60
8103;DHT22;4094;49.948;11.574;2023-12-07T07:01:19;5.70;75.60
8103;DHT22;4094;49.948;11.574;2023-12-07T07:04:08;5.70;75.60
8103;DHT22;4094;49.948;11.574;2023-12-07T07:06:58;5.70;75.60
8103;DHT22;4094;49.948;11.574;2023-12-07T07:09:47;5.80;75.70
8103;DHT22;4094;49.948;11.574;2023-12-07T07:12:36;5.80;75.60
8103;DHT22;4094;49.948;11.574;2023-12-07T07:15:26;5.80;75.50
8103;DHT22;4094;49.948;11.574;2023-12-07T07:18:17;5.80;75.50
8103;DHT22;4094;49.948;11.574;2023-12-07T07:21:07;5.80;75.30
8103;DHT22;4094;49.948;11.574;2023-12-07T07:23:58;5.80;75.20
8103;DHT22;4094;49.948;11.574;2023-12-07T07:26:48;5.70;74.90
8103;DHT22;4094;49.948;11.574;2023-12-07T07:29:37;5.70;74.80
8103;DHT22;4094;49.948;11.574;2023-12-07T07:32:27;5.70;74.70
8103;DHT22;4094;49.948;11.574;2023-12-07T07:35:17;5.70;74.70
8103;DHT22;4094;49.948;11.574;2023-12-07T07:38:07;5.70;74.70
8103;DHT22;4094;49.948;11.574;2023-12-07T07:40:57;5.70;74.70
8103;DHT22;4094;49.948;11.574;2023-12-07T07:43:46;5.70;74.70
8103;DHT22;4094;49.948;11.574;2023-12-07T07:46:35;5.70;74.70
8103;DHT22;4094;49.948;11.574;2023-12-07T07:49:24;5.70;74.80
8103;DHT22;4094;49.948;11.574;2023-12-07T07:52:15;5.70;74.80
8103;DHT22;4094;49.948;11.574;2023-12-07T07:55:05;5.60;74.80
8103;DHT22;4094;49.948;11.574;2023-12-07T07:57:55;5.70;74.90
8103;DHT22;4094;49.948;11.574;2023-12-07T08:00:45;5.70;74.90
8103;DHT22;4094;49.948;11.574;2023-12-07T08:03:35;5.70;74.70
8103;DHT22;4094;49.948;11.574;2023-12-07T08:06:25;5.60;74.40
8103;DHT22;4094;49.948;11.574;2023-12-07T08:09:19;5.60;74.70
8103;DHT22;4094;49.948;11.574;2023-12-07T08:12:09;5.70;75.00
8103;DHT22;4094;49.948;11.574;2023-12-07T08:14:58;5.70;75.10
8103;DHT22;4094;49.948;11.574;2023-12-07T08:17:48;5.70;75.40
8103;DHT22;4094;49.948;11.574;2023-12-07T08:20:39;5.70;75.00
8103;DHT22;4094;49.948;11.574;2023-12-07T08:23:29;5.70;74.90
8103;DHT22;4094;49.948;11.574;2023-12-07T08:26:26;5.80;74.90
8103;DHT22;4094;49.948;11.574;2023-12-07T08:29:20;5.80;74.90
8103;DHT22;4094;49.948;11.574;2023-12-07T08:32:09;5.80;74.70
8103;DHT22;4094;49.948;11.574;2023-12-07T08:34:59;5.80;74.50
8103;DHT22;4094;49.948;11.574;2023-12-07T08:37:49;5.80;74.40
8103;DHT22;4094;49.948;11.574;2023-12-07T08:40:38;5.80;74.70
8103;DHT22;4094;49.948;11.574;2023-12-07T08:43:29;5.90;74.90
8103;DHT22;4094;49.948;11.574;2023-12-07T08:46:19;5.90;74.70
8103;DHT22;4094;49.948;11.574;2023-12-07T08:49:09;5.90;74.50
8103;DHT22;4094;49.948;11.574;2023-12-07T08:51:58;5.90;74.20
8103;DHT22;4094;49.948;11.574;2023-12-07T08:55:08;5.90;74.20
8103;DHT22;4094;49.948;11.574;2023-12-07T08:57:57;6.00;74.30
8103;DHT22;4094;49.948;11.574;2023-12-07T09:00:48;6.00;74.30
8103;DHT22;4094;49.948;11.574;2023-12-07T09:03:38;6.00;74.00
8103;DHT22;4094;49.948;11.574;2023-12-07T09:06:29;6.00;74.00
8103;DHT22;4094;49.948;11.574;2023-12-07T09:09:19;6.00;73.70
8103;DHT22;4094;49.948;11.574;2023-12-07T09:12:10;6.00;74.00
8103;DHT22;4094;49.948;11.574;2023-12-07T09:15:00;6.00;74.20
8103;DHT22;4094;49.948;11.574;2023-12-07T09:17:51;6.00;74.20
8103;DHT22;4094;49.948;11.574;2023-12-07T09:20:41;6.10;74.30
8103;DHT22;4094;49.948;11.574;2023-12-07T09:23:34;6.10;74.20
8103;DHT22;4094;49.948;11.574;2023-12-07T09:26:25;6.20;74.30
8103;DHT22;4094;49.948;11.574;2023-12-07T09:29:15;6.20;74.20
8103;DHT22;4094;49.948;11.574;2023-12-07T09:32:06;6.30;74.10
8103;DHT22;4094;49.948;11.574;2023-12-07T09:34:57;6.30;73.80
8103;DHT22;4094;49.948;11.574;2023-12-07T09:37:47;6.30;73.80
8103;DHT22;4094;49.948;11.574;2023-12-07T09:40:37;6.30;73.50
8103;DHT22;4094;49.948;11.574;2023-12-07T09:43:26;6.30;73.20
8103;DHT22;4094;49.948;11.574;2023-12-07T09:46:16;6.30;72.80
8103;DHT22;4094;49.948;11.574;2023-12-07T09:49:06;6.30;73.10
8103;DHT22;4094;49.948;11.574;2023-12-07T09:51:58;6.30;73.40
8103;DHT22;4094;49.948;11.574;2023-12-07T09:54:49;6.40;73.50
8103;DHT22;4094;49.948;11.574;2023-12-07T09:57:39;6.40;73.50
8103;DHT22;4094;49.948;11.574;2023-12-07T10:00:29;6.40;73.20
8103;DHT22;4094;49.948;11.574;2023-12-07T10:03:23;6.40;73.30
8103;DHT22;4094;49.948;11.574;2023-12-07T10:06:12;6.40;72.70
8103;DHT22;4094;49.948;11.574;2023-12-07T10:09:04;6.40;72.50
8103;DHT22;4094;49.948;11.574;2023-12-07T10:12:04;6.40;72.80
8103;DHT22;4094;49.948;11.574;2023-12-07T10:14:53;6.40;72.90
8103;DHT22;4094;49.948;11.574;2023-12-07T10:17:45;6.40;72.50
8103;DHT22;4094;49.948;11.574;2023-12-07T10:20:37;6.40;72.50
8103;DHT22;4094;49.948;11.574;2023-12-07T10:23:35;6.40;72.80
8103;DHT22;4094;49.948;11.574;2023-12-07T10:26:26;6.40;72.70
8103;DHT22;4094;49.948;11.574;2023-12-07T10:29:17;6.40;72.90
8103;DHT22;4094;49.948;11.574;2023-12-07T10:32:21;6.40;72.50
8103;DHT22;4094;49.948;11.574;2023-12-07T10:35:12;6.40;72.50
8103;DHT22;4094;49.948;11.574;2023-12-07T10:38:02;6.40;72.50
8103;DHT22;4094;49.948;11.574;2023-12-07T10:41:04;6.40;72.50
8103;DHT22;4094;49.948;11.574;2023-12-07T10:44:00;6.40;72.20
8103;DHT22;4094;49.948;11.574;2023-12-07T10:46:50;6.40;71.90
8103;DHT22;4094;49.948;11.574;2023-12-07T10:49:43;6.40;72.10
8103;DHT22;4094;49.948;11.574;2023-12-07T10:52:35;6.40;71.90
8103;DHT22;4094;49.948;11.574;2023-12-07T10:55:28;6.40;71.90
8103;DHT22;4094;49.948;11.574;2023-12-07T10:58:19;6.30;71.20
8103;DHT22;4094;49.948;11.574;2023-12-07T11:01:13;6.30;70.30
8103;DHT22;4094;49.948;11.574;2023-12-07T11:04:05;6.30;69.70
8103;DHT22;4094;49.948;11.574;2023-12-07T11:06:57;6.20;70.00
8103;DHT22;4094;49.948;11.574;2023-12-07T11:09:56;6.10;70.40
8103;DHT22;4094;49.948;11.574;2023-12-07T11:12:53;6.10;71.00
8103;DHT22;4094;49.948;11.574;2023-12-07T11:15:44;6.10;71.30
8103;DHT22;4094;49.948;11.574;2023-12-07T11:18:35;6.20;71.30
8103;DHT22;4094;49.948;11.574;2023-12-07T11:21:26;6.20;71.10
8103;DHT22;4094;49.948;11.574;2023-12-07T11:24:16;6.20;70.90
8103;DHT22;4094;49.948;11.574;2023-12-07T11:27:05;6.20;70.90
8103;DHT22;4094;49.948;11.574;2023-12-07T11:29:57;6.30;71.20
8103;DHT22;4094;49.948;11.574;2023-12-07T11:32:48;6.30;71.20
8103;DHT22;4094;49.948;11.574;2023-12-07T11:36:03;6.30;71.20
8103;DHT22;4094;49.948;11.574;2023-12-07T11:39:16;6.40;70.60
8103;DHT22;4094;49.948;11.574;2023-12-07T11:42:17;6.40;70.30
8103;DHT22;4094;49.948;11.574;2023-12-07T11:45:07;6.40;70.20
8103;DHT22;4094;49.948;11.574;2023-12-07T11:48:08;6.50;70.00
8103;DHT22;4094;49.948;11.574;2023-12-07T11:51:02;6.50;70.20
8103;DHT22;4094;49.948;11.574;2023-12-07T11:53:54;6.50;70.40
8103;DHT22;4094;49.948;11.574;2023-12-07T11:56:44;6.50;70.20
8103;DHT22;4094;49.948;11.574;2023-12-07T11:59:33;6.60;70.20
8103;DHT22;4094;49.948;11.574;2023-12-07T12:02:23;6.60;70.10
8103;DHT22;4094;49.948;11.574;2023-12-07T12:05:13;6.70;69.70
8103;DHT22;4094;49.948;11.574;2023-12-07T12:08:04;6.70;69.50
8103;DHT22;4094;49.948;11.574;2023-12-07T12:10:55;6.80;69.90
8103;DHT22;4094;49.948;11.574;2023-12-07T12:13:46;6.90;69.60
8103;DHT22;4094;49.948;11.574;2023-12-07T12:16:37;7.10;69.40
8103;DHT22;4094;49.948;11.574;2023-12-07T12:19:26;7.30;69.00
8103;DHT22;4094;49.948;11.574;2023-12-07T12:22:21;7.50;68.90
8103;DHT22;4094;49.948;11.574;2023-12-07T12:25:12;7.70;68.20
8103;DHT22;4094;49.948;11.574;2023-12-07T12:28:04;8.00;67.80
8103;DHT22;4094;49.948;11.574;2023-12-07T12:30:55;8.20;67.60
8103;DHT22;4094;49.948;11.574;2023-12-07T12:33:44;8.40;66.20
8103;DHT22;4094;49.948;11.574;2023-12-07T12:36:34;8.40;65.70
8103;DHT22;4094;49.948;11.574;2023-12-07T12:39:27;8.40;65.20
8103;DHT22;4094;49.948;11.574;2023-12-07T12:42:21;8.40;63.70
8103;DHT22;4094;49.948;11.574;2023-12-07T12:45:14;8.30;63.60
8103;DHT22;4094;49.948;11.574;2023-12-07T12:48:04;8.20;62.70
8103;DHT22;4094;49.948;11.574;2023-12-07T12:50:55;8.00;63.40
8103;DHT22;4094;49.948;11.574;2023-12-07T12:53:46;8.00;63.80
8103;DHT22;4094;49.948;11.574;2023-12-07T12:56:39;7.90;63.90
8103;DHT22;4094;49.948;11.574;2023-12-07T12:59:28;7.90;64.20
8103;DHT22;4094;49.948;11.574;2023-12-07T13:02:19;7.90;64.40
8103;DHT22;4094;49.948;11.574;2023-12-07T13:05:09;7.90;64.80
8103;DHT22;4094;49.948;11.574;2023-12-07T13:07:59;7.90;65.00
8103;DHT22;4094;49.948;11.574;2023-12-07T13:11:01;7.80;64.80
8103;DHT22;4094;49.948;11.574;2023-12-07T13:13:53;7.80;65.00
8103;DHT22;4094;49.948;11.574;2023-12-07T13:16:43;7.80;64.50
8103;DHT22;4094;49.948;11.574;2023-12-07T13:19:34;7.70;64.50
8103;DHT22;4094;49.948;11.574;2023-12-07T13:22:24;7.60;64.40
8103;DHT22;4094;49.948;11.574;2023-12-07T13:25:14;7.50;64.50
8103;DHT22;4094;49.948;11.574;2023-12-07T13:28:05;7.50;64.90
8103;DHT22;4094;49.948;11.574;2023-12-07T13:30:54;7.40;64.70
8103;DHT22;4094;49.948;11.574;2023-12-07T13:33:44;7.30;64.20
8103;DHT22;4094;49.948;11.574;2023-12-07T13:36:45;7.20;64.20
8103;DHT22;4094;49.948;11.574;2023-12-07T13:39:34;7.00;64.50
8103;DHT22;4094;49.948;11.574;2023-12-07T13:42:25;7.00;65.10
8103;DHT22;4094;49.948;11.574;2023-12-07T13:45:16;6.90;65.60
8103;DHT22;4094;49.948;11.574;2023-12-07T13:48:07;6.90;66.00
8103;DHT22;4094;49.948;11.574;2023-12-07T13:50:56;6.90;66.40
8103;DHT22;4094;49.948;11.574;2023-12-07T13:53:47;6.90;66.50
8103;DHT22;4094;49.948;11.574;2023-12-07T13:56:36;6.90;66.30
8103;DHT22;4094;49.948;11.574;2023-12-07T13:59:26;6.90;66.40
8103;DHT22;4094;49.948;11.574;2023-12-07T14:02:16;6.90;66.60
8103;DHT22;4094;49.948;11.574;2023-12-07T14:05:06;6.90;67.00
8103;DHT22;4094;49.948;11.574;2023-12-07T14:07:56;6.90;67.10
8103;DHT22;4094;49.948;11.574;2023-12-07T14:10:47;7.00;67.10
8103;DHT22;4094;49.948;11.574;2023-12-07T14:13:38;7.00;67.00
8103;DHT22;4094;49.948;11.574;2023-12-07T14:16:28;6.90;67.10
8103;DHT22;4094;49.948;11.574;2023-12-07T14:19:37;6.90;67.20
8103;DHT22;4094;49.948;11.574;2023-12-07T14:22:26;6.90;67.00
8103;DHT22;4094;49.948;11.574;2023-12-07T14:25:17;6.90;67.10
8103;DHT22;4094;49.948;11.574;2023-12-07T14:28:09;6.90;67.10
8103;DHT22;4094;49.948;11.574;2023-12-07T14:30:58;6.90;67.20
8103;DHT22;4094;49.948;11.574;2023-12-07T14:33:48;6.90;67.50
8103;DHT22;4094;49.948;11.574;2023-12-07T14:36:43;6.90;67.70
8103;DHT22;4094;49.948;11.574;2023-12-07T14:39:32;6.90;67.60
8103;DHT22;4094;49.948;11.574;2023-12-07T14:42:22;6.90;67.10
8103;DHT22;4094;49.948;11.574;2023-12-07T14:45:14;6.90;67.10
8103;DHT22;4094;49.948;11.574;2023-12-07T14:48:04;6.80;67.50
8103;DHT22;4094;49.948;11.574;2023-12-07T14:50:54;6.80;66.50
8103;DHT22;4094;49.948;11.574;2023-12-07T14:53:44;6.70;66.60
8103;DHT22;4094;49.948;11.574;2023-12-07T14:56:34;6.70;66.90
8103;DHT22;4094;49.948;11.574;2023-12-07T14:59:24;6.60;66.90
8103;DHT22;4094;49.948;11.574;2023-12-07T15:02:15;6.60;66.90
8103;DHT22;4094;49.948;11.574;2023-12-07T15:05:06;6.50;66.80
8103;DHT22;4094;49.948;11.574;2023-12-07T15:07:57;6.50;66.80
8103;DHT22;4094;49.948;11.574;2023-12-07T15:10:47;6.40;67.00
8103;DHT22;4094;49.948;11.574;2023-12-07T15:13:40;6.30;67.10
8103;DHT22;4094;49.948;11.574;2023-12-07T15:16:29;6.30;67.40
8103;DHT22;4094;49.948;11.574;2023-12-07T15:19:22;6.30;67.70
8103;DHT22;4094;49.948;11.574;2023-12-07T15:22:11;6.20;67.80
8103;DHT22;4094;49.948;11.574;2023-12-07T15:25:01;6.20;68.00
8103;DHT22;4094;49.948;11.574;2023-12-07T15:27:52;6.20;68.00
8103;DHT22;4094;49.948;11.574;2023-12-07T15:30:42;6.10;68.80
8103;DHT22;4094;49.948;11.574;2023-12-07T15:33:33;6.10;68.10
8103;DHT22;4094;49.948;11.574;2023-12-07T15:36:25;6.00;68.30
8103;DHT22;4094;49.948;11.574;2023-12-07T15:39:14;6.00;68.40
8103;DHT22;4094;49.948;11.574;2023-12-07T15:42:04;5.90;69.20
8103;DHT22;4094;49.948;11.574;2023-12-07T15:44:54;5.90;68.60
8103;DHT22;4094;49.948;11.574;2023-12-07T15:47:43;5.80;68.50
8103;DHT22;4094;49.948;11.574;2023-12-07T15:50:33;5.80;68.60
8103;DHT22;4094;49.948;11.574;2023-12-07T15:53:24;5.80;68.70
8103;DHT22;4094;49.948;11.574;2023-12-07T15:56:14;5.70;68.70
8103;DHT22;4094;49.948;11.574;2023-12-07T15:59:11;5.70;68.90
8103;DHT22;4094;49.948;11.574;2023-12-07T16:02:01;5.60;69.00
8103;DHT22;4094;49.948;11.574;2023-12-07T16:04:50;5.60;69.00
8103;DHT22;4094;49.948;11.574;2023-12-07T16:07:41;5.60;69.20
8103;DHT22;4094;49.948;11.574;2023-12-07T16:10:31;5.50;69.20
8103;DHT22;4094;49.948;11.574;2023-12-07T16:13:20;5.50;69.30
8103;DHT22;4094;49.948;11.574;2023-12-07T16:16:10;5.40;69.30
8103;DHT22;4094;49.948;11.574;2023-12-07T16:19:01;5.30;69.40
8103;DHT22;4094;49.948;11.574;2023-12-07T16:21:51;5.30;69.50
8103;DHT22;4094;49.948;11.574;2023-12-07T16:24:40;5.20;69.70
8103;DHT22;4094;49.948;11.574;2023-12-07T16:27:31;5.20;69.90
8103;DHT22;4094;49.948;11.574;2023-12-07T16:30:20;5.20;70.00
8103;DHT22;4094;49.948;11.574;2023-12-07T16:33:12;5.20;70.10
8103;DHT22;4094;49.948;11.574;2023-12-07T16:36:01;5.10;70.10
8103;DHT22;4094;49.948;11.574;2023-12-07T16:39:05;5.10;70.20
8103;DHT22;4094;49.948;11.574;2023-12-07T16:41:56;5.10;70.40
8103;DHT22;4094;49.948;11.574;2023-12-07T16:44:51;5.10;70.60
8103;DHT22;4094;49.948;11.574;2023-12-07T16:47:42;5.10;70.60
8103;DHT22;4094;49.948;11.574;2023-12-07T16:50:32;5.00;70.60
8103;DHT22;4094;49.948;11.574;2023-12-07T16:53:22;5.00;70.60
8103;DHT22;4094;49.948;11.574;2023-12-07T16:56:11;5.00;70.70
8103;DHT22;4094;49.948;11.574;2023-12-07T16:59:01;5.00;70.70
8103;DHT22;4094;49.948;11.574;2023-12-07T17:01:52;5.00;70.70
8103;DHT22;4094;49.948;11.574;2023-12-07T17:04:41;4.90;70.70
8103;DHT22;4094;49.948;11.574;2023-12-07T17:07:31;4.90;70.90
8103;DHT22;4094;49.948;11.574;2023-12-07T17:10:20;4.90;70.90
8103;DHT22;4094;49.948;11.574;2023-12-07T17:13:09;4.90;70.90
8103;DHT22;4094;49.948;11.574;2023-12-07T17:16:00;4.80;70.90
8103;DHT22;4094;49.948;11.574;2023-12-07T17:18:52;4.80;71.00
8103;DHT22;4094;49.948;11.574;2023-12-07T17:21:42;4.80;71.00
8103;DHT22;4094;49.948;11.574;2023-12-07T17:24:31;4.80;71.00
8103;DHT22;4094;49.948;11.574;2023-12-07T17:27:21;4.80;71.00
8103;DHT22;4094;49.948;11.574;2023-12-07T17:30:11;4.80;71.00
8103;DHT22;4094;49.948;11.574;2023-12-07T17:33:03;4.80;70.90
8103;DHT22;4094;49.948;11.574;2023-12-07T17:35:54;4.70;70.90
8103;DHT22;4094;49.948;11.574;2023-12-07T17:38:43;4.70;70.90
8103;DHT22;4094;49.948;11.574;2023-12-07T17:41:33;4.70;71.00
8103;DHT22;4094;49.948;11.574;2023-12-07T17:44:22;4.70;71.20
8103;DHT22;4094;49.948;11.574;2023-12-07T17:47:11;4.60;71.30
8103;DHT22;4094;49.948;11.574;2023-12-07T17:50:01;4.60;71.30
8103;DHT22;4094;49.948;11.574;2023-12-07T17:52:53;4.60;71.20
8103;DHT22;4094;49.948;11.574;2023-12-07T17:55:43;4.60;71.20
8103;DHT22;4094;49.948;11.574;2023-12-07T17:58:32;4.60;71.20
8103;DHT22;4094;49.948;11.574;2023-12-07T18:01:22;4.50;71.40
8103;DHT22;4094;49.948;11.574;2023-12-07T18:04:12;4.50;71.30
8103;DHT22;4094;49.948;11.574;2023-12-07T18:07:01;4.50;71.40
8103;DHT22;4094;49.948;11.574;2023-12-07T18:09:52;4.40;71.50
8103;DHT22;4094;49.948;11.574;2023-12-07T18:12:44;4.40;71.60
8103;DHT22;4094;49.948;11.574;2023-12-07T18:15:33;4.40;71.50
8103;DHT22;4094;49.948;11.574;2023-12-07T18:18:22;4.40;71.60
8103;DHT22;4094;49.948;11.574;2023-12-07T18:21:12;4.40;71.50
8103;DHT22;4094;49.948;11.574;2023-12-07T18:24:01;4.40;71.50
8103;DHT22;4094;49.948;11.574;2023-12-07T18:26:52;4.30;71.60
8103;DHT22;4094;49.948;11.574;2023-12-07T18:29:41;4.30;71.70
8103;DHT22;4094;49.948;11.574;2023-12-07T18:32:31;4.40;71.70
8103;DHT22;4094;49.948;11.574;2023-12-07T18:35:20;4.30;71.70